Terminal Aerodrome Forecast
Issued by NWS

Home | Current Version | Previous Version | Text Only | Print | Product List | Glossary On
Versions: 1 2 3 4 5 6 7 8 9 10 11 12 13 14 15 16 17 18 19
000
FTUS43 KSGF 011000 AAB
TAFJLN
TAF AMD
KJLN 011035Z 0111/0206 09010KT 6SM -TSRA SCT035CB OVC080
      WS020/20045KT
      TEMPO 0111/0113 4SM -TSRA OVC025CB
     FM011400 20018G28KT P6SM BKN200
     FM012200 18010KT P6SM VCTS SCT040CB BKN100
      TEMPO 0122/0202 5SM -TSRA BR OVC040CB=

USA.gov is the U.S. government's official web portal to all federal, state and local government web resources and services.